createdAt,value
2022-09-24T00:00:34.441Z,9.757442
2022-09-24T00:01:34.510Z,9.757422
2022-09-24T00:02:34.447Z,9.757458
2022-09-24T00:03:34.455Z,9.757456
2022-09-24T00:04:34.394Z,9.757445
2022-09-24T00:05:34.386Z,9.757450
2022-09-24T00:06:34.383Z,9.757443
2022-09-24T00:07:34.365Z,9.757447
2022-09-24T00:08:34.393Z,9.757467
2022-09-24T00:09:34.348Z,9.757391
2022-09-24T00:10:34.353Z,9.757372
2022-09-24T00:11:34.359Z,9.757442
2022-09-24T00:12:34.329Z,9.757754
2022-09-24T00:13:34.350Z,9.757556
2022-09-24T00:14:34.322Z,9.757486
2022-09-24T00:15:34.308Z,9.757533
2022-09-24T00:16:34.330Z,9.757624
2022-09-24T00:17:34.290Z,9.757673
2022-09-24T00:18:34.302Z,9.757494
2022-09-24T00:19:34.277Z,9.757594
2022-09-24T00:20:34.343Z,9.757462
2022-09-24T00:21:34.252Z,9.757638
2022-09-24T00:22:34.250Z,9.757510
2022-09-24T00:23:34.263Z,9.757574
2022-09-24T00:24:34.234Z,9.757507
2022-09-24T00:25:34.224Z,9.757665
2022-09-24T00:26:34.215Z,9.757559
2022-09-24T00:27:34.204Z,9.757606
2022-09-24T00:28:34.226Z,9.757797
2022-09-24T00:29:34.416Z,9.757813
2022-09-24T00:30:34.199Z,9.757643
2022-09-24T00:31:34.223Z,9.757477
2022-09-24T00:32:34.165Z,9.757487
2022-09-24T00:33:34.196Z,9.757557
2022-09-24T00:34:34.152Z,9.757394
2022-09-24T00:35:34.138Z,9.757615
2022-09-24T00:36:34.130Z,9.757601
2022-09-24T00:37:34.118Z,9.757571
2022-09-24T00:38:34.147Z,9.757566
2022-09-24T00:39:34.107Z,9.757550
2022-09-24T00:40:34.191Z,9.757545
2022-09-24T00:41:35.086Z,9.757547
2022-09-24T00:42:34.092Z,9.757579
2022-09-24T00:43:34.085Z,9.757586
2022-09-24T00:44:34.095Z,9.757475
2022-09-24T00:45:34.049Z,9.757578
2022-09-24T00:46:34.107Z,9.757699
2022-09-24T00:47:34.038Z,9.757621
2022-09-24T00:48:34.026Z,9.757646
2022-09-24T00:49:34.050Z,9.757690
2022-09-24T00:50:34.013Z,9.757640
2022-09-24T00:51:34.033Z,9.757749
2022-09-24T00:52:34.004Z,9.757814
2022-09-24T00:53:33.990Z,9.757673
2022-09-24T00:54:34.015Z,9.757645
2022-09-24T00:55:33.973Z,9.757769
2022-09-24T00:56:34.016Z,9.757782
2022-09-24T00:57:34.018Z,9.757792
2022-09-24T00:58:33.951Z,9.757717
2022-09-24T00:59:33.977Z,9.757576
2022-09-24T01:00:33.985Z,9.757539
2022-09-24T01:01:35.028Z,9.757506
2022-09-24T01:02:34.010Z,9.757621
2022-09-24T01:03:33.907Z,9.757751
2022-09-24T01:04:34.008Z,9.757680
2022-09-24T01:05:33.888Z,9.757668
2022-09-24T01:06:33.883Z,9.757610
2022-09-24T01:07:33.883Z,9.757661
2022-09-24T01:08:33.866Z,9.757637
2022-09-24T01:09:33.885Z,9.757627
2022-09-24T01:10:33.851Z,9.757678
2022-09-24T01:11:33.843Z,9.757670
2022-09-24T01:12:33.831Z,9.757580
2022-09-24T01:13:33.840Z,9.757574
2022-09-24T01:14:33.848Z,9.757629
2022-09-24T01:15:33.812Z,9.757527
2022-09-24T01:16:33.890Z,9.757581
2022-09-24T01:17:33.792Z,9.757637
2022-09-24T01:18:33.787Z,9.757681
2022-09-24T01:19:33.808Z,9.757607
2022-09-24T01:20:33.771Z,9.757576
2022-09-24T01:21:33.760Z,9.757477
2022-09-24T01:22:33.750Z,9.757284
2022-09-24T01:23:33.754Z,9.757488
2022-09-24T01:24:33.761Z,9.757529
2022-09-24T01:25:33.731Z,9.757564
2022-09-24T01:26:33.736Z,9.757577
2022-09-24T01:27:33.699Z,9.757517
2022-09-24T01:28:34.709Z,9.757460
2022-09-24T01:29:33.722Z,9.757455
2022-09-24T01:30:33.691Z,9.757328
2022-09-24T01:31:33.710Z,9.757433
2022-09-24T01:32:33.664Z,9.757350
2022-09-24T01:33:33.662Z,9.757392
2022-09-24T01:34:33.680Z,9.757409
2022-09-24T01:35:33.641Z,9.757402
2022-09-24T01:36:33.634Z,9.757453
2022-09-24T01:37:33.638Z,9.757369
2022-09-24T01:38:33.620Z,9.757421
2022-09-24T01:39:33.642Z,9.757539
2022-09-24T01:40:33.663Z,9.757513
2022-09-24T01:41:33.596Z,9.757504
2022-09-24T01:42:33.587Z,9.757408
2022-09-24T01:43:33.580Z,9.757477
2022-09-24T01:44:33.599Z,9.757524
2022-09-24T01:45:33.561Z,9.757539
2022-09-24T01:46:33.611Z,9.757520
2022-09-24T01:47:34.862Z,9.757470
2022-09-24T01:48:34.547Z,9.757492
2022-09-24T01:49:33.560Z,9.757571
2022-09-24T01:50:33.523Z,9.757666
2022-09-24T01:51:33.516Z,9.757551
2022-09-24T01:52:33.513Z,9.757483
2022-09-24T01:53:33.503Z,9.757495
2022-09-24T01:54:33.534Z,9.757476
2022-09-24T01:55:33.487Z,9.757479
2022-09-24T01:56:33.471Z,9.757479
2022-09-24T01:57:33.465Z,9.757453
2022-09-24T01:58:33.462Z,9.757424
2022-09-24T01:59:33.483Z,9.757334
2022-09-24T02:00:33.518Z,9.757453
2022-09-24T02:01:33.529Z,9.757472
2022-09-24T02:02:33.487Z,9.757591
2022-09-24T02:03:33.416Z,9.757435
2022-09-24T02:04:33.444Z,9.757354
2022-09-24T02:05:33.396Z,9.757405
2022-09-24T02:06:33.395Z,9.757598
2022-09-24T02:07:33.381Z,9.757461
2022-09-24T02:08:33.397Z,9.757532
2022-09-24T02:09:33.378Z,9.757470
2022-09-24T02:10:33.383Z,9.757587
2022-09-24T02:11:33.354Z,9.757506
2022-09-24T02:12:33.349Z,9.757522
2022-09-24T02:13:33.338Z,9.757534
2022-09-24T02:14:33.330Z,9.757513
2022-09-24T02:15:33.353Z,9.757565
2022-09-24T02:16:33.351Z,9.757484
2022-09-24T02:17:33.299Z,9.757445
2022-09-24T02:18:33.295Z,9.757479
2022-09-24T02:19:33.318Z,9.757567
2022-09-24T02:20:33.285Z,9.757382
2022-09-24T02:21:33.272Z,9.757431
2022-09-24T02:22:33.261Z,9.757489
2022-09-24T02:23:33.255Z,9.757530
2022-09-24T02:24:33.285Z,9.757475
2022-09-24T02:25:33.232Z,9.757519
2022-09-24T02:26:33.236Z,9.757433
2022-09-24T02:27:33.319Z,9.757419
2022-09-24T02:28:33.207Z,9.757376
2022-09-24T02:29:33.240Z,9.757629
2022-09-24T02:30:33.197Z,9.757524
2022-09-24T02:31:33.299Z,9.757738
2022-09-24T02:32:33.284Z,9.757957
2022-09-24T02:33:33.172Z,9.757347
2022-09-24T02:34:33.190Z,9.757673
2022-09-24T02:35:33.149Z,9.757816
2022-09-24T02:36:33.151Z,9.757697
2022-09-24T02:37:33.227Z,9.757800
2022-09-24T02:38:33.132Z,9.757723
2022-09-24T02:39:33.162Z,9.757292
2022-09-24T02:40:33.184Z,9.757674
2022-09-24T02:41:33.106Z,9.758093
2022-09-24T02:42:33.160Z,9.757763
2022-09-24T02:43:34.087Z,9.757935
2022-09-24T02:44:33.115Z,9.758051
2022-09-24T02:45:33.069Z,9.757690
2022-09-24T02:46:33.132Z,9.757554
2022-09-24T02:47:33.139Z,9.757700
2022-09-24T02:48:33.047Z,9.757442
2022-09-24T02:49:33.093Z,9.757557
2022-09-24T02:50:33.032Z,9.757707
2022-09-24T02:51:33.023Z,9.758004
2022-09-24T02:52:33.083Z,9.757856
2022-09-24T02:53:33.005Z,9.757793
2022-09-24T02:54:32.991Z,9.757749
2022-09-24T02:55:33.029Z,9.757675
2022-09-24T02:56:32.975Z,9.757765
2022-09-24T02:57:32.972Z,9.757560
2022-09-24T02:58:32.954Z,9.757606
2022-09-24T02:59:32.947Z,9.757276
2022-09-24T03:00:32.967Z,9.757370
2022-09-24T03:01:32.948Z,9.757361
2022-09-24T03:02:33.999Z,9.757303
2022-09-24T03:03:32.919Z,9.757498
2022-09-24T03:04:32.906Z,9.757697
2022-09-24T03:05:32.930Z,9.757607
2022-09-24T03:06:32.914Z,9.757644
2022-09-24T03:07:32.883Z,9.757577
2022-09-24T03:08:32.881Z,9.757562
2022-09-24T03:09:32.879Z,9.757492
2022-09-24T03:10:32.886Z,9.757555
2022-09-24T03:11:32.851Z,9.757652
2022-09-24T03:12:32.838Z,9.757630
2022-09-24T03:13:32.825Z,9.757585
2022-09-24T03:14:32.853Z,9.757507
2022-09-24T03:15:32.844Z,9.757728
2022-09-24T03:16:32.889Z,9.758042
2022-09-24T03:17:32.802Z,9.757936
2022-09-24T03:18:32.792Z,9.757679
2022-09-24T03:19:32.816Z,9.757732
2022-09-24T03:20:32.789Z,9.757690
2022-09-24T03:21:32.765Z,9.757479
2022-09-24T03:22:32.759Z,9.757454
2022-09-24T03:23:32.746Z,9.757545
2022-09-24T03:24:32.778Z,9.757484
2022-09-24T03:25:32.742Z,9.757607
2022-09-24T03:26:32.728Z,9.757640
2022-09-24T03:27:32.725Z,9.757648
2022-09-24T03:28:32.706Z,9.757606
2022-09-24T03:29:32.752Z,9.757616
2022-09-24T03:30:32.695Z,9.757585
2022-09-24T03:31:32.762Z,9.757408
2022-09-24T03:32:32.681Z,9.757465
2022-09-24T03:33:32.666Z,9.757484
2022-09-24T03:34:32.694Z,9.757691
2022-09-24T03:35:32.658Z,9.757597
2022-09-24T03:36:32.645Z,9.757569
2022-09-24T03:37:32.639Z,9.757668
2022-09-24T03:38:32.625Z,9.757817
2022-09-24T03:39:32.609Z,9.757648
2022-09-24T03:40:32.724Z,9.757603
2022-09-24T03:41:32.598Z,9.757528
2022-09-24T03:42:32.632Z,9.757532
2022-09-24T03:43:32.592Z,9.757625
2022-09-24T03:44:32.577Z,9.757609
2022-09-24T03:45:32.595Z,9.757553
2022-09-24T03:46:32.604Z,9.757452
2022-09-24T03:47:32.552Z,9.757510
2022-09-24T03:48:32.544Z,9.757642
2022-09-24T03:49:32.540Z,9.757653
2022-09-24T03:50:32.557Z,9.757552
2022-09-24T03:51:32.514Z,9.757551
2022-09-24T03:52:32.507Z,9.757483
2022-09-24T03:53:32.500Z,9.757437
2022-09-24T03:54:32.521Z,9.757429
2022-09-24T03:55:32.515Z,9.757403
2022-09-24T03:56:32.471Z,9.757621
2022-09-24T03:57:32.465Z,9.757478
2022-09-24T03:58:32.459Z,9.757363
2022-09-24T03:59:32.460Z,9.757721
2022-09-24T04:00:35.344Z,9.757614
2022-09-24T04:01:33.489Z,9.757319
2022-09-24T04:02:32.495Z,9.757284
2022-09-24T04:03:32.417Z,9.757582
2022-09-24T04:04:32.413Z,9.757482
2022-09-24T04:05:32.436Z,9.757280
2022-09-24T04:06:32.393Z,9.757515
2022-09-24T04:07:32.389Z,9.757658
2022-09-24T04:08:32.376Z,9.757528
2022-09-24T04:09:32.372Z,9.757516
2022-09-24T04:10:32.387Z,9.757307
2022-09-24T04:11:32.360Z,9.757229
2022-09-24T04:12:32.350Z,9.757459
2022-09-24T04:13:32.347Z,9.757408
2022-09-24T04:14:32.324Z,9.757324
2022-09-24T04:15:32.345Z,9.757119
2022-09-24T04:16:32.343Z,9.757368
2022-09-24T04:17:32.304Z,9.757378
2022-09-24T04:18:37.018Z,9.757363
2022-09-24T04:19:34.283Z,9.757377
2022-09-24T04:20:32.306Z,9.757329
2022-09-24T04:21:32.264Z,9.757339
2022-09-24T04:22:32.257Z,9.757408
2022-09-24T04:23:32.253Z,9.757337
2022-09-24T04:24:32.238Z,9.757409
2022-09-24T04:25:32.258Z,9.757483
2022-09-24T04:26:32.230Z,9.757480
2022-09-24T04:27:32.230Z,9.757352
2022-09-24T04:28:32.213Z,9.757310
2022-09-24T04:29:32.197Z,9.757385
2022-09-24T04:30:32.226Z,9.757413
2022-09-24T04:31:32.213Z,9.757507
2022-09-24T04:32:32.185Z,9.757521
2022-09-24T04:33:32.167Z,9.757496
2022-09-24T04:34:32.159Z,9.757460
2022-09-24T04:35:32.185Z,9.757577
2022-09-24T04:36:32.152Z,9.757658
2022-09-24T04:37:32.131Z,9.757629
2022-09-24T04:38:32.141Z,9.757601
2022-09-24T04:39:32.120Z,9.757517
2022-09-24T04:40:32.239Z,9.757403
2022-09-24T04:41:32.097Z,9.757482
2022-09-24T04:42:32.093Z,9.757470
2022-09-24T04:43:32.094Z,9.757478
2022-09-24T04:44:32.080Z,9.757503
2022-09-24T04:45:32.104Z,9.757360
2022-09-24T04:46:32.189Z,9.757411
2022-09-24T04:47:32.050Z,9.757450
2022-09-24T04:48:32.047Z,9.757565
2022-09-24T04:49:32.029Z,9.757648
2022-09-24T04:50:32.025Z,9.757413
2022-09-24T04:51:32.043Z,9.757299
2022-09-24T04:52:32.009Z,9.757502
2022-09-24T04:53:31.998Z,9.757263
2022-09-24T04:54:31.991Z,9.757216
2022-09-24T04:55:32.020Z,9.757326
2022-09-24T04:56:31.982Z,9.757339
2022-09-24T04:57:31.975Z,9.757242
2022-09-24T04:58:31.959Z,9.757308
2022-09-24T04:59:31.948Z,9.757382
2022-09-24T05:00:31.974Z,9.757420
2022-09-24T05:01:32.070Z,9.757683
2022-09-24T05:02:32.007Z,9.757528
2022-09-24T05:03:31.920Z,9.757459
2022-09-24T05:04:31.911Z,9.757323
2022-09-24T05:05:31.891Z,9.757201
2022-09-24T05:06:31.919Z,9.757318
2022-09-24T05:07:31.887Z,9.757410
2022-09-24T05:08:31.898Z,9.757303
2022-09-24T05:09:31.867Z,9.757230
2022-09-24T05:10:31.857Z,9.757326
2022-09-24T05:11:31.871Z,9.757360
2022-09-24T05:12:31.832Z,9.757049
2022-09-24T05:13:31.843Z,9.757104
2022-09-24T05:14:31.814Z,9.757168
2022-09-24T05:15:31.875Z,9.756628
2022-09-24T05:16:31.938Z,9.756702
2022-09-24T05:17:31.785Z,9.757087
2022-09-24T05:18:31.782Z,9.757295
2022-09-24T05:19:31.772Z,9.757796
2022-09-24T05:20:31.763Z,9.757779
2022-09-24T05:21:31.788Z,9.757547
2022-09-24T05:22:31.742Z,9.757401
2022-09-24T05:23:31.740Z,9.757194
2022-09-24T05:24:31.734Z,9.757552
2022-09-24T05:25:31.726Z,9.757476
2022-09-24T05:26:31.746Z,9.757528
2022-09-24T05:27:31.701Z,9.757195
2022-09-24T05:28:31.693Z,9.757304
2022-09-24T05:29:31.691Z,9.757215
2022-09-24T05:30:31.683Z,9.757333
2022-09-24T05:31:31.735Z,9.757399
2022-09-24T05:32:31.685Z,9.757451
2022-09-24T05:33:31.652Z,9.757195
2022-09-24T05:34:31.645Z,9.757287
2022-09-24T05:35:31.642Z,9.757314
2022-09-24T05:36:31.653Z,9.757209
2022-09-24T05:37:31.615Z,9.757350
2022-09-24T05:38:31.610Z,9.757381
2022-09-24T05:39:34.142Z,9.757605
2022-09-24T05:40:32.700Z,9.757246
2022-09-24T05:41:31.615Z,9.757339
2022-09-24T05:42:31.586Z,9.757504
2022-09-24T05:43:31.577Z,9.757466
2022-09-24T05:44:31.588Z,9.757439
2022-09-24T05:45:31.557Z,9.757796
2022-09-24T05:46:31.612Z,9.757339
2022-09-24T05:47:31.604Z,9.757165
2022-09-24T05:48:31.535Z,9.757141
2022-09-24T05:49:31.533Z,9.757342
2022-09-24T05:50:31.518Z,9.757818
2022-09-24T05:51:31.536Z,9.757456
2022-09-24T05:52:31.501Z,9.757468
2022-09-24T05:53:31.488Z,9.757594
2022-09-24T05:54:31.483Z,9.757533
2022-09-24T05:55:32.580Z,9.757542
2022-09-24T05:56:32.492Z,9.757505
2022-09-24T05:57:31.451Z,9.757480
2022-09-24T05:58:31.448Z,9.757326
2022-09-24T05:59:31.436Z,9.757432
2022-09-24T06:00:31.424Z,9.757330
2022-09-24T06:01:31.506Z,9.757320
2022-09-24T06:02:31.450Z,9.757289
2022-09-24T06:03:31.546Z,9.757457
2022-09-24T06:04:31.413Z,9.757315
2022-09-24T06:05:31.393Z,9.757384
2022-09-24T06:06:31.421Z,9.757397
2022-09-24T06:07:31.374Z,9.757406
2022-09-24T06:08:31.371Z,9.757386
2022-09-24T06:09:31.354Z,9.757305
2022-09-24T06:10:31.349Z,9.757223
2022-09-24T06:11:31.369Z,9.757381
2022-09-24T06:12:31.339Z,9.757369
2022-09-24T06:13:31.346Z,9.757538
2022-09-24T06:14:31.320Z,9.757501
2022-09-24T06:15:31.304Z,9.757598
2022-09-24T06:16:31.365Z,9.757430
2022-09-24T06:17:31.286Z,9.757346
2022-09-24T06:18:31.274Z,9.757563
2022-09-24T06:19:31.271Z,9.757529
2022-09-24T06:20:31.373Z,9.757426
2022-09-24T06:21:31.287Z,9.757368
2022-09-24T06:22:31.241Z,9.757606
2022-09-24T06:23:31.235Z,9.757423
2022-09-24T06:24:31.223Z,9.757509
2022-09-24T06:25:31.226Z,9.757598
2022-09-24T06:26:31.241Z,9.757607
2022-09-24T06:27:31.202Z,9.757479
2022-09-24T06:28:31.202Z,9.757416
2022-09-24T06:29:31.182Z,9.757586
2022-09-24T06:30:31.172Z,9.757632
2022-09-24T06:31:31.242Z,9.757613
2022-09-24T06:32:31.164Z,9.757784
2022-09-24T06:33:31.148Z,9.757843
2022-09-24T06:34:31.143Z,9.757809
2022-09-24T06:35:31.134Z,9.757607
2022-09-24T06:36:31.151Z,9.757475
2022-09-24T06:37:31.108Z,9.757605
2022-09-24T06:38:31.136Z,9.757719
2022-09-24T06:39:31.096Z,9.757623
2022-09-24T06:40:36.259Z,9.757532
2022-09-24T06:41:33.099Z,9.757589
2022-09-24T06:42:31.072Z,9.758140
2022-09-24T06:43:31.060Z,9.758001
2022-09-24T06:44:31.095Z,9.757794
2022-09-24T06:45:31.047Z,9.757670
2022-09-24T06:46:31.076Z,9.757520
2022-09-24T06:47:31.041Z,9.757423
2022-09-24T06:48:31.019Z,9.757340
2022-09-24T06:49:34.108Z,9.757455
2022-09-24T06:50:31.999Z,9.757493
2022-09-24T06:51:31.023Z,9.757548
2022-09-24T06:52:30.989Z,9.757341
2022-09-24T06:53:30.973Z,9.757405
2022-09-24T06:54:30.972Z,9.757398
2022-09-24T06:55:30.959Z,9.757335
2022-09-24T06:56:30.976Z,9.757364
2022-09-24T06:57:30.937Z,9.757503
2022-09-24T06:58:30.933Z,9.757557
2022-09-24T06:59:31.922Z,9.757503
2022-09-24T07:00:30.920Z,9.757444
2022-09-24T07:01:31.051Z,9.757370
2022-09-24T07:02:30.982Z,9.757310
2022-09-24T07:03:30.896Z,9.757445
2022-09-24T07:04:30.883Z,9.757523
2022-09-24T07:05:30.875Z,9.757466
2022-09-24T07:06:30.904Z,9.757409
2022-09-24T07:07:30.863Z,9.757471
2022-09-24T07:08:30.850Z,9.757476
2022-09-24T07:09:30.845Z,9.757480
2022-09-24T07:10:30.835Z,9.757500
2022-09-24T07:11:30.862Z,9.757408
2022-09-24T07:12:30.813Z,9.757593
2022-09-24T07:13:30.807Z,9.757595
2022-09-24T07:14:30.795Z,9.757516
2022-09-24T07:15:30.789Z,9.757427
2022-09-24T07:16:30.889Z,9.757445
2022-09-24T07:17:33.917Z,9.757455
2022-09-24T07:18:31.768Z,9.757504
2022-09-24T07:19:30.757Z,9.757454
2022-09-24T07:20:30.751Z,9.757508
2022-09-24T07:21:31.772Z,9.757565
2022-09-24T07:22:30.730Z,9.757465
2022-09-24T07:23:30.790Z,9.757437
2022-09-24T07:24:30.723Z,9.757472
2022-09-24T07:25:30.706Z,9.757424
2022-09-24T07:26:30.705Z,9.757407
2022-09-24T07:27:30.715Z,9.757427
2022-09-24T07:28:30.683Z,9.757325
2022-09-24T07:29:30.677Z,9.757386
2022-09-24T07:30:30.667Z,9.757451
2022-09-24T07:31:30.717Z,9.757440
2022-09-24T07:32:30.681Z,9.757454
2022-09-24T07:33:30.639Z,9.757432
2022-09-24T07:34:31.624Z,9.757581
2022-09-24T07:35:30.620Z,9.757502
2022-09-24T07:36:30.621Z,9.757449
2022-09-24T07:37:30.635Z,9.757484
2022-09-24T07:38:30.601Z,9.757401
2022-09-24T07:39:30.647Z,9.757395
2022-09-24T07:40:30.634Z,9.757383
2022-09-24T07:41:30.579Z,9.757447
2022-09-24T07:42:30.598Z,9.757313
2022-09-24T07:43:30.560Z,9.757357
2022-09-24T07:44:30.549Z,9.757427
2022-09-24T07:45:30.558Z,9.757398
2022-09-24T07:46:30.608Z,9.757467
2022-09-24T07:47:31.561Z,9.757427
2022-09-24T07:48:30.515Z,9.757504
2022-09-24T07:49:30.515Z,9.757422
2022-09-24T07:50:30.504Z,9.757429
2022-09-24T07:51:30.490Z,9.757412
2022-09-24T07:52:30.508Z,9.757442
2022-09-24T07:53:30.474Z,9.757485
2022-09-24T07:54:30.463Z,9.757413
2022-09-24T07:55:30.456Z,9.757454
2022-09-24T07:56:30.453Z,9.757627
2022-09-24T07:57:30.474Z,9.757513
2022-09-24T07:58:30.437Z,9.757482
2022-09-24T07:59:30.423Z,9.757413
2022-09-24T08:00:30.415Z,9.757890
2022-09-24T08:01:30.495Z,9.757507
2022-09-24T08:02:30.439Z,9.757425
2022-09-24T08:03:30.471Z,9.757471
2022-09-24T08:04:30.378Z,9.757550
2022-09-24T08:05:30.376Z,9.757463
2022-09-24T08:06:34.485Z,9.757437
2022-09-24T08:07:31.387Z,9.757526
2022-09-24T08:08:30.351Z,9.757987
2022-09-24T08:09:30.343Z,9.757507
2022-09-24T08:10:30.334Z,9.757408
2022-09-24T08:11:30.384Z,9.757441
2022-09-24T08:12:30.355Z,9.757569
2022-09-24T08:13:30.310Z,9.757491
2022-09-24T08:14:30.297Z,9.757616
2022-09-24T08:15:30.291Z,9.757480
2022-09-24T08:16:30.318Z,9.757607
2022-09-24T08:17:30.303Z,9.757694
2022-09-24T08:18:30.307Z,9.757348
2022-09-24T08:19:30.260Z,9.757647
2022-09-24T08:20:30.252Z,9.757535
2022-09-24T08:21:30.249Z,9.757505
2022-09-24T08:22:30.267Z,9.757700
2022-09-24T08:23:30.261Z,9.757502
2022-09-24T08:24:30.219Z,9.757513
2022-09-24T08:25:30.222Z,9.757561
2022-09-24T08:26:30.203Z,9.757556
2022-09-24T08:27:30.226Z,9.757624
2022-09-24T08:28:30.240Z,9.757755
2022-09-24T08:29:31.195Z,9.757702
2022-09-24T08:30:30.174Z,9.757729
2022-09-24T08:31:30.233Z,9.757697
2022-09-24T08:32:30.192Z,9.757799
2022-09-24T08:33:30.146Z,9.757637
2022-09-24T08:34:30.140Z,9.757683
2022-09-24T08:35:30.131Z,9.757827
2022-09-24T08:36:30.129Z,9.757769
2022-09-24T08:37:30.143Z,9.757614
2022-09-24T08:38:30.113Z,9.757842
2022-09-24T08:39:30.093Z,9.757407
2022-09-24T08:40:30.160Z,9.757604
2022-09-24T08:41:30.079Z,9.757512
2022-09-24T08:42:30.108Z,9.757666
2022-09-24T08:43:30.120Z,9.757812
2022-09-24T08:44:30.056Z,9.757683
2022-09-24T08:45:30.052Z,9.757628
2022-09-24T08:46:30.103Z,9.757475
2022-09-24T08:47:30.061Z,9.757709
2022-09-24T08:48:30.020Z,9.757690
2022-09-24T08:49:30.012Z,9.757662
2022-09-24T08:50:30.008Z,9.757639
2022-09-24T08:51:33.326Z,9.757588
2022-09-24T08:52:31.023Z,9.757605
2022-09-24T08:53:29.984Z,9.757646
2022-09-24T08:54:29.973Z,9.757525
2022-09-24T08:55:29.966Z,9.757650
2022-09-24T08:56:29.964Z,9.757692
2022-09-24T08:57:29.986Z,9.757618
2022-09-24T08:58:29.942Z,9.757700
2022-09-24T08:59:29.994Z,9.757904
2022-09-24T09:00:29.928Z,9.757637
2022-09-24T09:01:29.991Z,9.757640
2022-09-24T09:02:30.026Z,9.757621
2022-09-24T09:03:29.905Z,9.757558
2022-09-24T09:04:29.948Z,9.757645
2022-09-24T09:05:29.900Z,9.757911
2022-09-24T09:06:29.885Z,9.757958
2022-09-24T09:07:29.907Z,9.758066
2022-09-24T09:08:50.435Z,9.757766
2022-09-24T09:09:31.851Z,9.757545
2022-09-24T09:10:29.845Z,9.757413
2022-09-24T09:11:29.834Z,9.757999
2022-09-24T09:12:29.864Z,9.758026
2022-09-24T09:13:29.838Z,9.757955
2022-09-24T09:14:31.561Z,9.757772
2022-09-24T09:15:30.821Z,9.757684
2022-09-24T09:16:29.840Z,9.757904
2022-09-24T09:17:29.821Z,9.757569
2022-09-24T09:18:29.787Z,9.757845
2022-09-24T09:19:29.780Z,9.757894
2022-09-24T09:20:29.767Z,9.757702
2022-09-24T09:21:29.759Z,9.757690
2022-09-24T09:22:29.779Z,9.757837
2022-09-24T09:23:29.756Z,9.757616
2022-09-24T09:24:29.736Z,9.757518
2022-09-24T09:25:29.732Z,9.757607
2022-09-24T09:26:29.727Z,9.757822
2022-09-24T09:27:29.751Z,9.757898
2022-09-24T09:28:29.693Z,9.757918
2022-09-24T09:29:30.705Z,9.757781
2022-09-24T09:30:29.694Z,9.757553
2022-09-24T09:31:29.811Z,9.757533
2022-09-24T09:32:29.715Z,9.757525
2022-09-24T09:33:29.677Z,9.757482
2022-09-24T09:34:29.713Z,9.757603
2022-09-24T09:35:29.657Z,9.757747
2022-09-24T09:36:29.647Z,9.757716
2022-09-24T09:37:29.638Z,9.757650
2022-09-24T09:38:29.665Z,9.757558
2022-09-24T09:39:29.618Z,9.757683
2022-09-24T09:40:32.164Z,9.757733
2022-09-24T09:41:30.703Z,9.757638
2022-09-24T09:42:29.606Z,9.758356
2022-09-24T09:43:29.626Z,9.757460
2022-09-24T09:44:29.584Z,9.757699
2022-09-24T09:45:29.572Z,9.757356
2022-09-24T09:46:29.605Z,9.757541
2022-09-24T09:47:29.588Z,9.757353
2022-09-24T09:48:29.585Z,9.757559
2022-09-24T09:49:29.550Z,9.757790
2022-09-24T09:50:29.534Z,9.757605
2022-09-24T09:51:29.512Z,9.757381
2022-09-24T09:52:30.514Z,9.757491
2022-09-24T09:53:29.533Z,9.757401
2022-09-24T09:54:29.496Z,9.757664
2022-09-24T09:55:29.493Z,9.757350
2022-09-24T09:56:29.485Z,9.757465
2022-09-24T09:57:29.472Z,9.757609
2022-09-24T09:58:29.490Z,9.757609
2022-09-24T09:59:29.984Z,9.757487
2022-09-24T10:00:30.448Z,9.757551
2022-09-24T10:01:29.445Z,9.757245
2022-09-24T10:02:29.676Z,9.757466
2022-09-24T10:03:29.531Z,9.757444
2022-09-24T10:04:29.462Z,9.757339
2022-09-24T10:05:29.419Z,9.757358
2022-09-24T10:06:29.410Z,9.757339
2022-09-24T10:07:29.400Z,9.757380
2022-09-24T10:08:29.417Z,9.757451
2022-09-24T10:09:29.381Z,9.757463
2022-09-24T10:10:29.384Z,9.757483
2022-09-24T10:11:29.360Z,9.757463
2022-09-24T10:12:29.353Z,9.757556
2022-09-24T10:13:29.385Z,9.757594
2022-09-24T10:14:29.344Z,9.757486
2022-09-24T10:15:29.323Z,9.757390
2022-09-24T10:16:29.375Z,9.757512
2022-09-24T10:17:29.314Z,9.757388
2022-09-24T10:18:29.338Z,9.757292
2022-09-24T10:19:29.295Z,9.757334
2022-09-24T10:20:29.309Z,9.757387
2022-09-24T10:21:29.283Z,9.757614
2022-09-24T10:22:29.270Z,9.757409
2022-09-24T10:23:29.286Z,9.757578
2022-09-24T10:24:29.255Z,9.757678
2022-09-24T10:25:29.245Z,9.757603
2022-09-24T10:26:29.243Z,9.757502
2022-09-24T10:27:29.228Z,9.757465
2022-09-24T10:28:29.252Z,9.757352
2022-09-24T10:29:29.216Z,9.757347
2022-09-24T10:30:29.218Z,9.757386
2022-09-24T10:31:29.241Z,9.757419
2022-09-24T10:32:29.189Z,9.757563
2022-09-24T10:33:29.221Z,9.757380
2022-09-24T10:34:29.192Z,9.757550
2022-09-24T10:35:29.170Z,9.757319
2022-09-24T10:36:29.167Z,9.757440
2022-09-24T10:37:29.158Z,9.757586
2022-09-24T10:38:29.150Z,9.757504
2022-09-24T10:39:29.158Z,9.757639
2022-09-24T10:40:29.174Z,9.757448
2022-09-24T10:41:29.123Z,9.757500
2022-09-24T10:42:29.167Z,9.757434
2022-09-24T10:43:29.108Z,9.757225
2022-09-24T10:44:29.120Z,9.757438
2022-09-24T10:45:29.084Z,9.757402
2022-09-24T10:46:29.135Z,9.757400
2022-09-24T10:47:29.064Z,9.757302
2022-09-24T10:48:29.066Z,9.757501
2022-09-24T10:49:29.082Z,9.757483
2022-09-24T10:50:29.053Z,9.757503
2022-09-24T10:51:29.735Z,9.757441
2022-09-24T10:52:30.021Z,9.757474
2022-09-24T10:53:29.033Z,9.757754
2022-09-24T10:54:29.046Z,9.757566
2022-09-24T10:55:29.005Z,9.757546
2022-09-24T10:56:29.004Z,9.757577
2022-09-24T10:57:28.992Z,9.757437
2022-09-24T10:58:28.988Z,9.757410
2022-09-24T10:59:29.004Z,9.757455
2022-09-24T11:00:28.980Z,9.757643
2022-09-24T11:01:29.016Z,9.757584
2022-09-24T11:02:29.096Z,9.757541
2022-09-24T11:03:28.944Z,9.757554
2022-09-24T11:04:28.988Z,9.757506
2022-09-24T11:05:28.934Z,9.757607
2022-09-24T11:06:28.931Z,9.757566
2022-09-24T11:07:28.920Z,9.757430
2022-09-24T11:08:28.915Z,9.757431
2022-09-24T11:09:28.926Z,9.757444
2022-09-24T11:10:28.898Z,9.757484
2022-09-24T11:11:28.900Z,9.757503
2022-09-24T11:12:47.839Z,9.757451
2022-09-24T11:13:28.910Z,9.757418
2022-09-24T11:14:28.880Z,9.757578
2022-09-24T11:15:28.858Z,9.757477
2022-09-24T11:16:28.914Z,9.757542
2022-09-24T11:17:28.848Z,9.757458
2022-09-24T11:18:29.160Z,9.757418
2022-09-24T11:19:29.041Z,9.757411
2022-09-24T11:20:28.844Z,9.757457
2022-09-24T11:21:29.889Z,9.757434
2022-09-24T11:22:28.806Z,9.757485
2022-09-24T11:23:28.887Z,9.757477
2022-09-24T11:24:28.822Z,9.757545
2022-09-24T11:25:28.790Z,9.757569
2022-09-24T11:26:28.783Z,9.757492
2022-09-24T11:27:28.771Z,9.757469
2022-09-24T11:28:28.765Z,9.757443
2022-09-24T11:29:31.085Z,9.757417
2022-09-24T11:30:28.745Z,9.757495
2022-09-24T11:31:28.766Z,9.757551
2022-09-24T11:32:28.724Z,9.757483
2022-09-24T11:33:28.726Z,9.757417
2022-09-24T11:34:28.760Z,9.757318
2022-09-24T11:35:28.710Z,9.757329
2022-09-24T11:36:28.706Z,9.757418
2022-09-24T11:37:28.701Z,9.757443
2022-09-24T11:38:28.689Z,9.757455
2022-09-24T11:39:28.990Z,9.757528
2022-09-24T11:40:28.757Z,9.757435
2022-09-24T11:41:28.808Z,9.757495
2022-09-24T11:42:28.660Z,9.757448
2022-09-24T11:43:28.771Z,9.757399
2022-09-24T11:44:28.772Z,9.757527